Tropical Cyclones
[Index]
Main Index Home Page Stock Weather Photos Extreme Storms Discussion Storm News and Storm Chasing Reports Tropical Cyclones / Hurricanes / Typhoons Weather Data and Links Wild Fires / Bushfires Weather Observation Techniques Weather Picture Catalogue Tornado Pictures and Reports Stock Video Footage and DVDs for sale
Season 1986-1987 Tropical Cyclone WINI Track Map
Season 1986-1987 Summaries: [BoM-AU] [JTWC-AU] [JTWC-SIO] [JTWC-SPAC] [JTWC-SH]
<<- Previous TC | JTWC 1986-1987 Season | Next TC ->>

click for intensity scale information  Lat/long Grid: Show Hide

 Date Labels: Show Hide

Joint Typhoon Warning Centre Cyclone Data

Name: WINI

27 Feb 1987 00:00 UTC to 07 Mar 1987 00:00 UTC

    date/time    lat    long     hPa   cat  kts
1987-02-27 00    9.9   172.5                  20          
1987-02-27 06   10.6   173.8                  20          
1987-02-27 12   11.1   175.4                  20          
1987-02-27 18   11.5   176.9                  20          
1987-02-28 00   11.9   178.4                  25          
1987-02-28 06   12.3   179.9                  25          
1987-02-28 12   12.7   178.5W                 25          
1987-02-28 18   12.9   176.9W                 25          
1987-03-01 00   13.1   175.5W                 30          
1987-03-01 06   13.3   174.0W                 35          
1987-03-01 12   13.5   172.6W                 35          
1987-03-01 18   13.7   171.0W                 35          
1987-03-02 00   13.9   169.5W           1     40          
1987-03-02 06   14.4   168.1W           1     40          
1987-03-02 12   15.3   166.7W           1     45          
1987-03-02 18   16.7   165.8W           1     45          
1987-03-03 00   18.1   165.6W           1     50          
1987-03-03 06   19.4   165.6W           2     55          
1987-03-03 12   20.5   165.5W           2     60          
1987-03-03 18   21.4   165.2W           2     65          
1987-03-04 00   22.2   164.7W           2     65          
1987-03-04 06   22.9   164.1W           2     65          
1987-03-04 12   23.5   163.5W           2     65          
1987-03-04 18   24.3   162.7W           2     60          
1987-03-05 00   24.9   161.8W           2     55          
1987-03-05 06   25.6   160.7W           2     60          
1987-03-05 12   26.2   159.7W           2     65          
1987-03-05 18   27.2   158.2W           2     65          
1987-03-06 00   28.1   156.4W           2     65          
1987-03-06 06   28.8   154.3W           2     60          
1987-03-06 12   29.5   152.2W           2     55          
1987-03-06 18   30.3   150.3W           2     55          
1987-03-07 00   31.4   148.3W           1     50          
Winds are 1-min average.

Tropical cyclone tracks developed by Michael Bath using data from the Joint Typhoon Warning Centre Best Tracks and Google Maps.


[Australian Severe Weather index] [Copyright Notice] [Email Contacts] [Search This Site] [Privacy Policy]
Document: tropical_cyclone_wini.htm Updated: 18 September 2016